sensor_id;sensor_type;location;lat;lon;timestamp;pressure;altitude;pressure_sealevel;temperature;humidity
67931;BME280;63902;52.000;5.954;2023-02-01T00:00:10;101518.91;;;3.38;100.00
67931;BME280;63902;52.000;5.954;2023-02-01T00:01:11;101521.53;;;3.46;100.00
67931;BME280;63902;52.000;5.954;2023-02-01T00:02:11;101506.66;;;3.46;100.00
67931;BME280;63902;52.000;5.954;2023-02-01T00:03:12;101503.19;;;3.56;99.80
67931;BME280;63902;52.000;5.954;2023-02-01T00:04:12;101501.41;;;3.60;99.13
67931;BME280;63902;52.000;5.954;2023-02-01T00:05:13;101504.03;;;3.65;98.94
67931;BME280;63902;52.000;5.954;2023-02-01T00:06:14;101500.53;;;3.67;98.42
67931;BME280;63902;52.000;5.954;2023-02-01T00:07:14;101499.66;;;3.68;98.47
67931;BME280;63902;52.000;5.954;2023-02-01T00:08:15;101497.03;;;3.71;98.18
67931;BME280;63902;52.000;5.954;2023-02-01T00:09:15;101508.41;;;3.70;98.37
67931;BME280;63902;52.000;5.954;2023-02-01T00:10:18;101508.38;;;3.72;98.27
67931;BME280;63902;52.000;5.954;2023-02-01T00:11:18;101512.78;;;3.73;98.38
67931;BME280;63902;52.000;5.954;2023-02-01T00:12:18;101511.00;;;3.73;98.51
67931;BME280;63902;52.000;5.954;2023-02-01T00:13:19;101505.78;;;3.73;98.69
67931;BME280;63902;52.000;5.954;2023-02-01T00:14:21;101516.25;;;3.72;98.65
67931;BME280;63902;52.000;5.954;2023-02-01T00:15:21;101500.53;;;3.70;98.57
67931;BME280;63902;52.000;5.954;2023-02-01T00:16:23;101499.66;;;3.68;98.11
67931;BME280;63902;52.000;5.954;2023-02-01T00:17:24;101504.91;;;3.65;98.38
67931;BME280;63902;52.000;5.954;2023-02-01T00:18:25;101497.03;;;3.62;98.84
67931;BME280;63902;52.000;5.954;2023-02-01T00:19:25;101501.44;;;3.58;98.55
67931;BME280;63902;52.000;5.954;2023-02-01T00:20:26;101486.56;;;3.56;98.35
67931;BME280;63902;52.000;5.954;2023-02-01T00:21:27;101484.81;;;3.52;98.69
67931;BME280;63902;52.000;5.954;2023-02-01T00:22:27;101492.69;;;3.50;98.90
67931;BME280;63902;52.000;5.954;2023-02-01T00:23:28;101493.56;;;3.48;98.84
67931;BME280;63902;52.000;5.954;2023-02-01T00:24:28;101486.56;;;3.44;99.18
67931;BME280;63902;52.000;5.954;2023-02-01T00:25:31;101485.69;;;3.43;99.00
67931;BME280;63902;52.000;5.954;2023-02-01T00:26:33;101493.56;;;3.42;99.08
67931;BME280;63902;52.000;5.954;2023-02-01T00:27:34;101503.19;;;3.40;99.20
67931;BME280;63902;52.000;5.954;2023-02-01T00:28:34;101506.66;;;3.39;99.28
67931;BME280;63902;52.000;5.954;2023-02-01T00:29:35;101493.56;;;3.35;99.07
67931;BME280;63902;52.000;5.954;2023-02-01T00:30:35;101499.69;;;3.38;98.78
67931;BME280;63902;52.000;5.954;2023-02-01T00:31:36;101503.19;;;3.40;98.89
67931;BME280;63902;52.000;5.954;2023-02-01T00:32:36;101492.69;;;3.38;99.02
67931;BME280;63902;52.000;5.954;2023-02-01T00:33:37;101504.03;;;3.39;98.88
67931;BME280;63902;52.000;5.954;2023-02-01T00:34:37;101485.69;;;3.32;98.76
67931;BME280;63902;52.000;5.954;2023-02-01T00:35:38;101504.06;;;3.40;98.76
67931;BME280;63902;52.000;5.954;2023-02-01T00:36:39;101500.56;;;3.43;98.67
67931;BME280;63902;52.000;5.954;2023-02-01T00:37:39;101504.06;;;3.40;98.85
67931;BME280;63902;52.000;5.954;2023-02-01T00:38:40;101504.03;;;3.39;98.73
67931;BME280;63902;52.000;5.954;2023-02-01T00:39:41;101503.19;;;3.36;98.84
67931;BME280;63902;52.000;5.954;2023-02-01T00:40:43;101493.56;;;3.35;99.11
67931;BME280;63902;52.000;5.954;2023-02-01T00:41:43;101502.31;;;3.34;98.92
67931;BME280;63902;52.000;5.954;2023-02-01T00:42:44;101496.19;;;3.34;99.21
67931;BME280;63902;52.000;5.954;2023-02-01T00:43:45;101500.56;;;3.33;99.50
67931;BME280;63902;52.000;5.954;2023-02-01T00:44:45;101500.56;;;3.33;99.19
67931;BME280;63902;52.000;5.954;2023-02-01T00:45:46;101492.69;;;3.32;99.54
67931;BME280;63902;52.000;5.954;2023-02-01T00:46:46;101493.56;;;3.32;99.36
67931;BME280;63902;52.000;5.954;2023-02-01T00:47:47;101495.34;;;3.33;99.04
67931;BME280;63902;52.000;5.954;2023-02-01T00:48:47;101500.56;;;3.35;98.72
67931;BME280;63902;52.000;5.954;2023-02-01T00:49:48;101489.19;;;3.36;98.57
67931;BME280;63902;52.000;5.954;2023-02-01T00:50:48;101484.84;;;3.36;99.15
67931;BME280;63902;52.000;5.954;2023-02-01T00:51:49;101474.34;;;3.36;99.23
67931;BME280;63902;52.000;5.954;2023-02-01T00:52:49;101488.31;;;3.39;98.91
67931;BME280;63902;52.000;5.954;2023-02-01T00:53:50;101474.34;;;3.36;98.56
67931;BME280;63902;52.000;5.954;2023-02-01T00:54:50;101449.00;;;3.29;98.16
67931;BME280;63902;52.000;5.954;2023-02-01T00:55:52;101470.81;;;3.47;98.28
67931;BME280;63902;52.000;5.954;2023-02-01T00:56:53;101481.31;;;3.50;97.89
67931;BME280;63902;52.000;5.954;2023-02-01T00:57:53;101472.56;;;3.55;97.37
67931;BME280;63902;52.000;5.954;2023-02-01T00:58:54;101483.94;;;3.59;96.94
67931;BME280;63902;52.000;5.954;2023-02-01T00:59:54;101477.81;;;3.62;97.46
67931;BME280;63902;52.000;5.954;2023-02-01T01:01:02;101480.44;;;3.58;97.65
67931;BME280;63902;52.000;5.954;2023-02-01T01:02:03;101480.41;;;3.55;97.66
67931;BME280;63902;52.000;5.954;2023-02-01T01:03:03;101487.41;;;3.58;97.73
67931;BME280;63902;52.000;5.954;2023-02-01T01:04:04;101489.16;;;3.61;97.97
67931;BME280;63902;52.000;5.954;2023-02-01T01:05:04;101487.41;;;3.63;97.59
67931;BME280;63902;52.000;5.954;2023-02-01T01:06:06;101488.31;;;3.65;97.44
67931;BME280;63902;52.000;5.954;2023-02-01T01:07:08;101490.03;;;3.67;96.94
67931;BME280;63902;52.000;5.954;2023-02-01T01:08:08;101486.53;;;3.68;97.25
67931;BME280;63902;52.000;5.954;2023-02-01T01:09:09;101497.91;;;3.73;96.40
67931;BME280;63902;52.000;5.954;2023-02-01T01:10:10;101490.91;;;3.74;96.95
67931;BME280;63902;52.000;5.954;2023-02-01T01:11:13;101495.28;;;3.70;96.90
67931;BME280;63902;52.000;5.954;2023-02-01T01:12:14;101495.28;;;3.70;97.42
67931;BME280;63902;52.000;5.954;2023-02-01T01:13:15;101497.03;;;3.68;97.53
67931;BME280;63902;52.000;5.954;2023-02-01T01:14:15;101497.03;;;3.65;97.46
67931;BME280;63902;52.000;5.954;2023-02-01T01:15:16;101495.31;;;3.64;97.57
67931;BME280;63902;52.000;5.954;2023-02-01T01:16:17;101486.53;;;3.65;97.19
67931;BME280;63902;52.000;5.954;2023-02-01T01:17:18;101481.28;;;3.68;97.09
67931;BME280;63902;52.000;5.954;2023-02-01T01:18:18;101488.28;;;3.69;97.22
67931;BME280;63902;52.000;5.954;2023-02-01T01:19:19;101475.16;;;3.69;97.09
67931;BME280;63902;52.000;5.954;2023-02-01T01:20:19;101465.56;;;3.62;97.29
67931;BME280;63902;52.000;5.954;2023-02-01T01:21:20;101476.03;;;3.68;97.53
67931;BME280;63902;52.000;5.954;2023-02-01T01:22:20;101469.94;;;3.68;97.32
67931;BME280;63902;52.000;5.954;2023-02-01T01:23:21;101467.28;;;3.66;97.51
67931;BME280;63902;52.000;5.954;2023-02-01T01:24:21;101471.69;;;3.67;97.75
67931;BME280;63902;52.000;5.954;2023-02-01T01:25:22;101471.69;;;3.64;97.82
67931;BME280;63902;52.000;5.954;2023-02-01T01:26:25;101474.31;;;3.63;97.96
67931;BME280;63902;52.000;5.954;2023-02-01T01:27:26;101480.44;;;3.65;97.07
67931;BME280;63902;52.000;5.954;2023-02-01T01:28:27;101469.91;;;3.71;96.82
67931;BME280;63902;52.000;5.954;2023-02-01T01:29:27;101467.28;;;3.75;96.72
67931;BME280;63902;52.000;5.954;2023-02-01T01:30:28;101467.28;;;3.72;96.88
67931;BME280;63902;52.000;5.954;2023-02-01T01:31:29;101462.94;;;3.73;96.99
67931;BME280;63902;52.000;5.954;2023-02-01T01:32:30;101470.78;;;3.71;97.31
67931;BME280;63902;52.000;5.954;2023-02-01T01:33:30;101467.28;;;3.66;97.50
67931;BME280;63902;52.000;5.954;2023-02-01T01:34:31;101460.31;;;3.65;97.24
67931;BME280;63902;52.000;5.954;2023-02-01T01:35:32;101475.19;;;3.65;97.65
67931;BME280;63902;52.000;5.954;2023-02-01T01:36:32;101461.19;;;3.61;97.58
67931;BME280;63902;52.000;5.954;2023-02-01T01:37:33;101459.44;;;3.62;97.74
67931;BME280;63902;52.000;5.954;2023-02-01T01:38:34;101471.69;;;3.63;97.56
67931;BME280;63902;52.000;5.954;2023-02-01T01:39:35;101469.94;;;3.65;97.46
67931;BME280;63902;52.000;5.954;2023-02-01T01:40:35;101463.81;;;3.67;97.54
67931;BME280;63902;52.000;5.954;2023-02-01T01:41:37;101464.69;;;3.65;97.66
67931;BME280;63902;52.000;5.954;2023-02-01T01:42:38;101464.72;;;3.58;98.09
67931;BME280;63902;52.000;5.954;2023-02-01T01:43:50;101466.44;;;3.55;98.27
67931;BME280;63902;52.000;5.954;2023-02-01T01:44:58;101465.59;;;3.53;98.45
67931;BME280;63902;52.000;5.954;2023-02-01T01:45:59;101463.81;;;3.52;98.36
67931;BME280;63902;52.000;5.954;2023-02-01T01:46:59;101446.38;;;3.45;98.26
67931;BME280;63902;52.000;5.954;2023-02-01T01:48:04;101453.34;;;3.52;98.58
67931;BME280;63902;52.000;5.954;2023-02-01T01:49:10;101457.72;;;3.47;98.87
67931;BME280;63902;52.000;5.954;2023-02-01T01:50:15;101459.47;;;3.43;99.04
67931;BME280;63902;52.000;5.954;2023-02-01T01:51:19;101459.47;;;3.45;99.03
67931;BME280;63902;52.000;5.954;2023-02-01T01:52:21;101461.22;;;3.49;98.83
67931;BME280;63902;52.000;5.954;2023-02-01T01:53:24;101456.84;;;3.48;98.97
67931;BME280;63902;52.000;5.954;2023-02-01T01:54:29;101454.25;;;3.45;98.74
67931;BME280;63902;52.000;5.954;2023-02-01T01:55:35;101448.13;;;3.43;99.12
67931;BME280;63902;52.000;5.954;2023-02-01T01:56:39;101447.22;;;3.44;99.09
67931;BME280;63902;52.000;5.954;2023-02-01T01:57:44;101455.97;;;3.41;99.22
67931;BME280;63902;52.000;5.954;2023-02-01T01:58:47;101450.75;;;3.40;99.27
67931;BME280;63902;52.000;5.954;2023-02-01T01:59:54;101452.50;;;3.39;99.23
67931;BME280;63902;52.000;5.954;2023-02-01T02:00:56;101448.97;;;3.42;99.19
67931;BME280;63902;52.000;5.954;2023-02-01T02:01:56;101456.84;;;3.42;99.56
67931;BME280;63902;52.000;5.954;2023-02-01T02:03:00;101456.84;;;3.42;99.45
67931;BME280;63902;52.000;5.954;2023-02-01T02:04:02;101455.97;;;3.41;99.16
67931;BME280;63902;52.000;5.954;2023-02-01T02:05:04;101450.75;;;3.43;99.21
67931;BME280;63902;52.000;5.954;2023-02-01T02:06:09;101447.22;;;3.44;99.26
67931;BME280;63902;52.000;5.954;2023-02-01T02:07:15;101444.63;;;3.45;99.32
67931;BME280;63902;52.000;5.954;2023-02-01T02:08:17;101436.75;;;3.45;99.37
67931;BME280;63902;52.000;5.954;2023-02-01T02:09:18;101441.97;;;3.47;99.28
67931;BME280;63902;52.000;5.954;2023-02-01T02:10:19;101442.88;;;3.46;99.15
67931;BME280;63902;52.000;5.954;2023-02-01T02:11:19;101436.72;;;3.47;99.34
67931;BME280;63902;52.000;5.954;2023-02-01T02:12:21;101441.09;;;3.46;99.50
67931;BME280;63902;52.000;5.954;2023-02-01T02:13:22;101440.22;;;3.44;99.33
67931;BME280;63902;52.000;5.954;2023-02-01T02:14:23;101437.63;;;3.43;99.61
67931;BME280;63902;52.000;5.954;2023-02-01T02:15:24;101434.13;;;3.45;99.59
67931;BME280;63902;52.000;5.954;2023-02-01T02:16:42;101438.50;;;3.40;99.31
67931;BME280;63902;52.000;5.954;2023-02-01T02:17:52;101435.88;;;3.35;99.56
67931;BME280;63902;52.000;5.954;2023-02-01T02:19:10;101435.03;;;3.36;99.72
67931;BME280;63902;52.000;5.954;2023-02-01T02:20:30;101434.13;;;3.44;99.61
67931;BME280;63902;52.000;5.954;2023-02-01T02:21:52;101427.09;;;3.47;99.22
67931;BME280;63902;52.000;5.954;2023-02-01T02:24:58;101428.84;;;3.59;98.59
67931;BME280;63902;52.000;5.954;2023-02-01T02:26:20;101428.00;;;3.54;98.51
67931;BME280;63902;52.000;5.954;2023-02-01T02:27:32;101424.47;;;3.55;98.90
67931;BME280;63902;52.000;5.954;2023-02-01T02:29:23;101431.50;;;3.56;98.78
67931;BME280;63902;52.000;5.954;2023-02-01T02:30:52;101420.09;;;3.60;98.35
67931;BME280;63902;52.000;5.954;2023-02-01T02:32:38;101414.84;;;3.60;98.52
67931;BME280;63902;52.000;5.954;2023-02-01T02:33:52;101420.09;;;3.63;98.30
67931;BME280;63902;52.000;5.954;2023-02-01T02:34:55;101421.84;;;3.64;98.26
67931;BME280;63902;52.000;5.954;2023-02-01T02:36:00;101418.34;;;3.62;98.17
67931;BME280;63902;52.000;5.954;2023-02-01T02:37:06;101423.56;;;3.68;98.25
67931;BME280;63902;52.000;5.954;2023-02-01T02:38:15;101418.31;;;3.67;98.14
67931;BME280;63902;52.000;5.954;2023-02-01T02:39:24;101421.84;;;3.64;98.21
67931;BME280;63902;52.000;5.954;2023-02-01T02:40:33;101410.47;;;3.57;98.26
67931;BME280;63902;52.000;5.954;2023-02-01T02:41:46;101410.47;;;3.57;98.35
67931;BME280;63902;52.000;5.954;2023-02-01T02:42:52;101420.97;;;3.54;98.73
67931;BME280;63902;52.000;5.954;2023-02-01T02:43:58;101421.88;;;3.52;98.90
67931;BME280;63902;52.000;5.954;2023-02-01T02:45:03;101414.88;;;3.49;99.13
67931;BME280;63902;52.000;5.954;2023-02-01T02:46:14;101407.88;;;3.47;99.04
67931;BME280;63902;52.000;5.954;2023-02-01T02:47:24;101408.75;;;3.47;99.03
67931;BME280;63902;52.000;5.954;2023-02-01T02:48:30;101414.91;;;3.45;99.31
67931;BME280;63902;52.000;5.954;2023-02-01T02:49:39;101409.66;;;3.45;99.53
67931;BME280;63902;52.000;5.954;2023-02-01T02:50:47;101406.16;;;3.43;99.13
67931;BME280;63902;52.000;5.954;2023-02-01T02:51:54;101407.91;;;3.41;99.60
67931;BME280;63902;52.000;5.954;2023-02-01T02:53:01;101404.41;;;3.39;99.44
67931;BME280;63902;52.000;5.954;2023-02-01T02:54:07;101414.88;;;3.39;99.55
67931;BME280;63902;52.000;5.954;2023-02-01T02:55:08;101407.03;;;3.37;99.53
67931;BME280;63902;52.000;5.954;2023-02-01T02:56:10;101409.66;;;3.35;99.93
67931;BME280;63902;52.000;5.954;2023-02-01T02:57:13;101403.53;;;3.30;100.00
67931;BME280;63902;52.000;5.954;2023-02-01T02:58:15;101408.78;;;3.32;99.85
67931;BME280;63902;52.000;5.954;2023-02-01T02:59:20;101406.19;;;3.32;99.81
67931;BME280;63902;52.000;5.954;2023-02-01T03:00:24;101408.78;;;3.30;100.00
67931;BME280;63902;52.000;5.954;2023-02-01T03:01:28;101407.06;;;3.29;99.80
67931;BME280;63902;52.000;5.954;2023-02-01T03:02:29;101406.19;;;3.29;100.00
67931;BME280;63902;52.000;5.954;2023-02-01T03:03:31;101413.19;;;3.25;99.94
67931;BME280;63902;52.000;5.954;2023-02-01T03:04:31;101408.78;;;3.27;100.00
67931;BME280;63902;52.000;5.954;2023-02-01T03:05:33;101404.44;;;3.26;100.00
67931;BME280;63902;52.000;5.954;2023-02-01T03:06:34;101410.56;;;3.25;100.00
67931;BME280;63902;52.000;5.954;2023-02-01T03:08:02;101407.94;;;3.25;100.00
67931;BME280;63902;52.000;5.954;2023-02-01T03:09:08;101404.44;;;3.23;100.00
67931;BME280;63902;52.000;5.954;2023-02-01T03:10:17;101397.47;;;3.21;100.00
67931;BME280;63902;52.000;5.954;2023-02-01T03:11:22;101399.22;;;3.20;100.00
67931;BME280;63902;52.000;5.954;2023-02-01T03:12:23;101390.47;;;3.20;100.00
67931;BME280;63902;52.000;5.954;2023-02-01T03:13:32;101387.84;;;3.20;100.00
67931;BME280;63902;52.000;5.954;2023-02-01T03:14:38;101384.34;;;3.19;100.00
67931;BME280;63902;52.000;5.954;2023-02-01T03:15:43;101383.47;;;3.20;100.00
67931;BME280;63902;52.000;5.954;2023-02-01T03:16:50;101375.63;;;3.17;100.00
67931;BME280;63902;52.000;5.954;2023-02-01T03:17:54;101381.72;;;3.19;100.00
67931;BME280;63902;52.000;5.954;2023-02-01T03:18:59;101379.13;;;3.14;100.00
67931;BME280;63902;52.000;5.954;2023-02-01T03:20:01;101376.47;;;3.16;100.00
67931;BME280;63902;52.000;5.954;2023-02-01T03:21:08;101380.84;;;3.16;100.00
67931;BME280;63902;52.000;5.954;2023-02-01T03:22:11;101380.00;;;3.17;100.00
67931;BME280;63902;52.000;5.954;2023-02-01T03:23:16;101369.50;;;3.18;100.00
67931;BME280;63902;52.000;5.954;2023-02-01T03:24:21;101379.09;;;3.19;100.00
67931;BME280;63902;52.000;5.954;2023-02-01T03:25:27;101381.72;;;3.16;100.00
67931;BME280;63902;52.000;5.954;2023-02-01T03:26:30;101385.22;;;3.18;100.00
67931;BME280;63902;52.000;5.954;2023-02-01T03:27:34;101382.63;;;3.17;100.00
67931;BME280;63902;52.000;5.954;2023-02-01T03:28:36;101391.34;;;3.19;100.00
67931;BME280;63902;52.000;5.954;2023-02-01T03:29:41;101390.47;;;3.18;100.00
67931;BME280;63902;52.000;5.954;2023-02-01T03:30:44;101384.38;;;3.14;100.00
67931;BME280;63902;52.000;5.954;2023-02-01T03:31:45;101387.84;;;3.13;100.00
67931;BME280;63902;52.000;5.954;2023-02-01T03:32:48;101388.72;;;3.12;100.00
67931;BME280;63902;52.000;5.954;2023-02-01T03:33:49;101394.00;;;3.11;100.00
67931;BME280;63902;52.000;5.954;2023-02-01T03:34:50;101391.38;;;3.11;100.00
67931;BME280;63902;52.000;5.954;2023-02-01T03:35:59;101392.22;;;3.10;100.00
67931;BME280;63902;52.000;5.954;2023-02-01T03:37:04;101359.03;;;2.94;100.00
67931;BME280;63902;52.000;5.954;2023-02-01T03:38:13;101395.72;;;3.09;100.00
67931;BME280;63902;52.000;5.954;2023-02-01T03:39:17;101391.34;;;3.09;100.00
67931;BME280;63902;52.000;5.954;2023-02-01T03:40:21;101392.22;;;3.10;100.00
67931;BME280;63902;52.000;5.954;2023-02-01T03:41:26;101395.72;;;3.09;100.00
67931;BME280;63902;52.000;5.954;2023-02-01T03:42:31;101388.75;;;3.09;100.00
67931;BME280;63902;52.000;5.954;2023-02-01T03:43:39;101393.97;;;3.14;100.00
67931;BME280;63902;52.000;5.954;2023-02-01T03:44:48;101391.38;;;3.14;100.00
67931;BME280;63902;52.000;5.954;2023-02-01T03:45:53;101391.34;;;3.19;100.00
67931;BME280;63902;52.000;5.954;2023-02-01T03:46:59;101398.31;;;3.21;100.00
67931;BME280;63902;52.000;5.954;2023-02-01T03:48:03;101395.72;;;3.23;100.00
67931;BME280;63902;52.000;5.954;2023-02-01T03:49:07;101395.69;;;3.24;100.00
67931;BME280;63902;52.000;5.954;2023-02-01T03:50:11;101397.44;;;3.31;100.00
67931;BME280;63902;52.000;5.954;2023-02-01T03:51:14;101400.03;;;3.33;100.00
67931;BME280;63902;52.000;5.954;2023-02-01T03:52:20;101400.94;;;3.33;100.00
67931;BME280;63902;52.000;5.954;2023-02-01T03:53:23;101402.66;;;3.38;100.00
67931;BME280;63902;52.000;5.954;2023-02-01T03:54:25;101399.16;;;3.39;100.00
67931;BME280;63902;52.000;5.954;2023-02-01T03:55:28;101386.94;;;3.41;100.00
67931;BME280;63902;52.000;5.954;2023-02-01T03:56:31;101396.56;;;3.40;100.00
67931;BME280;63902;52.000;5.954;2023-02-01T03:57:36;101388.66;;;3.39;100.00
67931;BME280;63902;52.000;5.954;2023-02-01T03:58:38;101384.31;;;3.39;100.00
67931;BME280;63902;52.000;5.954;2023-02-01T03:59:39;101379.94;;;3.40;100.00
67931;BME280;63902;52.000;5.954;2023-02-01T04:00:40;101382.56;;;3.40;100.00
67931;BME280;63902;52.000;5.954;2023-02-01T04:01:43;101379.06;;;3.44;100.00
67931;BME280;63902;52.000;5.954;2023-02-01T04:02:44;101379.91;;;3.49;100.00
67931;BME280;63902;52.000;5.954;2023-02-01T04:03:44;101378.16;;;3.54;100.00
67931;BME280;63902;52.000;5.954;2023-02-01T04:04:45;101385.13;;;3.58;100.00
67931;BME280;63902;52.000;5.954;2023-02-01T04:05:45;101379.88;;;3.58;100.00
67931;BME280;63902;52.000;5.954;2023-02-01T04:06:46;101382.50;;;3.58;100.00
67931;BME280;63902;52.000;5.954;2023-02-01T04:07:48;101378.13;;;3.60;100.00
67931;BME280;63902;52.000;5.954;2023-02-01T04:08:48;101382.50;;;3.58;100.00
67931;BME280;63902;52.000;5.954;2023-02-01T04:09:49;101374.63;;;3.61;100.00
67931;BME280;63902;52.000;5.954;2023-02-01T04:10:49;101381.63;;;3.59;100.00
67931;BME280;63902;52.000;5.954;2023-02-01T04:11:50;101376.41;;;3.56;100.00
67931;BME280;63902;52.000;5.954;2023-02-01T04:12:50;101383.41;;;3.51;100.00
67931;BME280;63902;52.000;5.954;2023-02-01T04:13:51;101375.53;;;3.49;100.00
67931;BME280;63902;52.000;5.954;2023-02-01T04:14:51;101380.75;;;3.57;100.00
67931;BME280;63902;52.000;5.954;2023-02-01T04:15:52;101386.00;;;3.60;100.00
67931;BME280;63902;52.000;5.954;2023-02-01T04:16:52;101385.09;;;3.61;100.00
67931;BME280;63902;52.000;5.954;2023-02-01T04:17:53;101368.56;;;3.53;100.00
67931;BME280;63902;52.000;5.954;2023-02-01T04:18:53;101384.22;;;3.64;100.00
67931;BME280;63902;52.000;5.954;2023-02-01T04:19:53;101387.72;;;3.61;100.00
67931;BME280;63902;52.000;5.954;2023-02-01T04:20:54;101387.72;;;3.69;100.00
67931;BME280;63902;52.000;5.954;2023-02-01T04:21:54;101388.59;;;3.68;100.00
67931;BME280;63902;52.000;5.954;2023-02-01T04:22:56;101385.97;;;3.69;100.00
67931;BME280;63902;52.000;5.954;2023-02-01T04:23:57;101380.72;;;3.71;100.00
67931;BME280;63902;52.000;5.954;2023-02-01T04:24:57;101390.34;;;3.70;100.00
67931;BME280;63902;52.000;5.954;2023-02-01T04:26:01;101385.97;;;3.71;100.00
67931;BME280;63902;52.000;5.954;2023-02-01T04:27:01;101374.63;;;3.67;100.00
67931;BME280;63902;52.000;5.954;2023-02-01T04:28:02;101389.47;;;3.64;100.00
67931;BME280;63902;52.000;5.954;2023-02-01T04:29:02;101385.97;;;3.71;100.00
67931;BME280;63902;52.000;5.954;2023-02-01T04:30:04;101390.31;;;3.75;100.00
67931;BME280;63902;52.000;5.954;2023-02-01T04:31:04;101385.06;;;3.79;100.00
67931;BME280;63902;52.000;5.954;2023-02-01T04:32:05;101386.78;;;3.84;100.00
67931;BME280;63902;52.000;5.954;2023-02-01T04:33:05;101385.03;;;3.86;99.94
67931;BME280;63902;52.000;5.954;2023-02-01T04:34:06;101392.03;;;3.87;99.92
67931;BME280;63902;52.000;5.954;2023-02-01T04:35:07;101385.91;;;3.85;99.86
67931;BME280;63902;52.000;5.954;2023-02-01T04:36:09;101394.66;;;3.87;100.00
67931;BME280;63902;52.000;5.954;2023-02-01T04:37:09;101396.38;;;3.89;100.00
67931;BME280;63902;52.000;5.954;2023-02-01T04:38:11;101396.38;;;3.91;99.78
67931;BME280;63902;52.000;5.954;2023-02-01T04:39:11;101396.38;;;3.95;99.50
67931;BME280;63902;52.000;5.954;2023-02-01T04:40:12;101391.97;;;3.99;99.50
67931;BME280;63902;52.000;5.954;2023-02-01T04:41:13;101391.94;;;4.02;99.12
67931;BME280;63902;52.000;5.954;2023-02-01T04:42:13;101381.44;;;4.00;99.00
67931;BME280;63902;52.000;5.954;2023-02-01T04:43:14;101384.97;;;3.98;99.32
67931;BME280;63902;52.000;5.954;2023-02-01T04:44:15;101389.31;;;4.00;99.06
67931;BME280;63902;52.000;5.954;2023-02-01T04:45:16;101384.94;;;4.04;99.13
67931;BME280;63902;52.000;5.954;2023-02-01T04:46:17;101388.44;;;4.09;98.68
67931;BME280;63902;52.000;5.954;2023-02-01T04:47:17;101384.88;;;4.13;98.72
67931;BME280;63902;52.000;5.954;2023-02-01T04:48:18;101387.53;;;4.15;98.67
67931;BME280;63902;52.000;5.954;2023-02-01T04:49:19;101388.38;;;4.17;98.66
67931;BME280;63902;52.000;5.954;2023-02-01T04:50:20;101394.47;;;4.19;98.34
67931;BME280;63902;52.000;5.954;2023-02-01T04:51:20;101400.59;;;4.22;97.63
67931;BME280;63902;52.000;5.954;2023-02-01T04:52:21;101392.66;;;4.30;97.53
67931;BME280;63902;52.000;5.954;2023-02-01T04:53:22;101393.53;;;4.31;97.67
67931;BME280;63902;52.000;5.954;2023-02-01T04:54:23;101383.91;;;4.28;97.81
67931;BME280;63902;52.000;5.954;2023-02-01T04:55:23;101396.16;;;4.31;97.67
67931;BME280;63902;52.000;5.954;2023-02-01T04:56:24;101393.56;;;4.29;97.74
67931;BME280;63902;52.000;5.954;2023-02-01T04:57:25;101383.03;;;4.31;97.89
67931;BME280;63902;52.000;5.954;2023-02-01T04:58:25;101380.44;;;4.28;98.10
67931;BME280;63902;52.000;5.954;2023-02-01T04:59:26;101378.69;;;4.26;98.13
67931;BME280;63902;52.000;5.954;2023-02-01T05:00:26;101383.06;;;4.29;97.42
67931;BME280;63902;52.000;5.954;2023-02-01T05:01:27;101387.41;;;4.32;97.69
67931;BME280;63902;52.000;5.954;2023-02-01T05:02:27;101383.91;;;4.33;97.45
67931;BME280;63902;52.000;5.954;2023-02-01T05:03:28;101383.84;;;4.39;96.85
67931;BME280;63902;52.000;5.954;2023-02-01T05:04:28;101380.34;;;4.41;96.81
67931;BME280;63902;52.000;5.954;2023-02-01T05:05:29;101380.34;;;4.41;96.54
67931;BME280;63902;52.000;5.954;2023-02-01T05:06:29;101391.69;;;4.45;96.85
67931;BME280;63902;52.000;5.954;2023-02-01T05:07:30;101381.22;;;4.43;96.76
67931;BME280;63902;52.000;5.954;2023-02-01T05:08:32;101380.31;;;4.44;97.10
67931;BME280;63902;52.000;5.954;2023-02-01T05:09:32;101394.31;;;4.46;96.10
67931;BME280;63902;52.000;5.954;2023-02-01T05:10:33;101382.03;;;4.52;96.34
67931;BME280;63902;52.000;5.954;2023-02-01T05:11:33;101388.13;;;4.54;96.68
67931;BME280;63902;52.000;5.954;2023-02-01T05:12:34;101384.63;;;4.53;95.56
67931;BME280;63902;52.000;5.954;2023-02-01T05:13:34;101389.84;;;4.56;95.81
67931;BME280;63902;52.000;5.954;2023-02-01T05:14:35;101380.25;;;4.57;95.50
67931;BME280;63902;52.000;5.954;2023-02-01T05:15:35;101388.09;;;4.60;95.68
67931;BME280;63902;52.000;5.954;2023-02-01T05:16:36;101381.09;;;4.59;95.70
67931;BME280;63902;52.000;5.954;2023-02-01T05:17:36;101367.13;;;4.52;96.44
67931;BME280;63902;52.000;5.954;2023-02-01T05:18:36;101381.13;;;4.57;96.15
67931;BME280;63902;52.000;5.954;2023-02-01T05:19:37;101374.06;;;4.59;95.88
67931;BME280;63902;52.000;5.954;2023-02-01T05:20:37;101371.44;;;4.59;94.85
67931;BME280;63902;52.000;5.954;2023-02-01T05:21:38;101374.91;;;4.64;95.29
67931;BME280;63902;52.000;5.954;2023-02-01T05:22:38;101378.44;;;4.63;95.89
67931;BME280;63902;52.000;5.954;2023-02-01T05:23:40;101381.06;;;4.63;95.61
67931;BME280;63902;52.000;5.954;2023-02-01T05:24:41;101378.41;;;4.66;95.75
67931;BME280;63902;52.000;5.954;2023-02-01T05:25:41;101374.94;;;4.63;95.84
67931;BME280;63902;52.000;5.954;2023-02-01T05:26:42;101373.16;;;4.68;95.39
67931;BME280;63902;52.000;5.954;2023-02-01T05:27:43;101365.25;;;4.69;95.45
67931;BME280;63902;52.000;5.954;2023-02-01T05:28:43;101368.75;;;4.71;95.22
67931;BME280;63902;52.000;5.954;2023-02-01T05:29:43;101365.22;;;4.72;95.63
67931;BME280;63902;52.000;5.954;2023-02-01T05:30:44;101381.00;;;4.69;96.08
67931;BME280;63902;52.000;5.954;2023-02-01T05:31:45;101360.94;;;4.62;96.45
67931;BME280;63902;52.000;5.954;2023-02-01T05:32:49;101366.16;;;4.64;95.72
67931;BME280;63902;52.000;5.954;2023-02-01T05:33:50;101373.16;;;4.66;95.92